Time;durP1;ratioP1;P1;durP2;ratioP2;P2;SDS_P1;SDS_P2;PMS_P1;PMS_P2;Temp;Humidity;BMP_temperature;BMP_pressure;BME280_temperature;BME280_humidity;BME280_pressure;Samples;Min_cycle;Max_cycle;Signal;HPM_P1;HPM_P2
2021/09/24 00:00:59;;;;;;;4.20;3.90;;;;;;;13.02;100.00;98114.50;5074735;28;20779;-66
2021/09/24 00:03:27;;;;;;;4.10;3.80;;;;;;;12.92;100.00;98113.09;5026299;28;20222;-69
2021/09/24 00:05:55;;;;;;;4.10;3.80;;;;;;;12.82;100.00;98110.66;5070129;28;20718;-68
2021/09/24 00:08:25;;;;;;;4.17;3.87;;;;;;;12.76;100.00;98106.03;5037211;28;20852;-70
2021/09/24 00:10:53;;;;;;;3.97;3.67;;;;;;;12.67;100.00;98115.88;5064978;28;20820;-68
2021/09/24 00:13:21;;;;;;;3.83;3.57;;;;;;;12.58;100.00;98110.63;5072739;28;20213;-69
2021/09/24 00:15:49;;;;;;;5.03;4.50;;;;;;;12.58;100.00;98110.63;5075048;28;20344;-69
2021/09/24 00:18:18;;;;;;;5.17;4.67;;;;;;;12.66;100.00;98101.75;5075090;28;20755;-68
2021/09/24 00:20:46;;;;;;;4.37;4.07;;;;;;;12.62;100.00;98107.63;5072847;28;20776;-69
2021/09/24 00:23:14;;;;;;;4.67;4.33;;;;;;;12.58;100.00;98107.13;5068972;28;20559;-68
2021/09/24 00:25:44;;;;;;;5.03;4.57;;;;;;;12.54;100.00;98108.47;5041079;28;20605;-70
2021/09/24 00:28:12;;;;;;;4.80;4.40;;;;;;;12.56;100.00;98106.47;5066329;28;20757;-70
2021/09/24 00:30:40;;;;;;;4.30;4.00;;;;;;;12.54;100.00;98111.13;5072104;28;20320;-69
2021/09/24 00:33:08;;;;;;;4.53;4.23;;;;;;;12.51;100.00;98111.47;5062940;28;20221;-68
2021/09/24 00:35:36;;;;;;;4.23;3.93;;;;;;;12.45;100.00;98116.50;5073816;28;20202;-67
2021/09/24 00:38:04;;;;;;;4.67;4.30;;;;;;;12.37;100.00;98113.88;5077504;28;20685;-68
2021/09/24 00:40:34;;;;;;;4.40;4.03;;;;;;;12.27;100.00;98111.41;5033503;28;20237;-69
2021/09/24 00:43:04;;;;;;;3.87;3.57;;;;;;;12.15;100.00;98108.31;5075596;28;20270;-67
2021/09/24 00:45:32;;;;;;;3.90;3.60;;;;;;;12.09;100.00;98109.00;5068874;28;20217;-66
2021/09/24 00:48:00;;;;;;;5.07;4.67;;;;;;;12.07;100.00;98108.34;5065148;28;20527;-67
2021/09/24 00:50:29;;;;;;;4.70;4.23;;;;;;;12.08;100.00;98102.03;5070288;28;20226;-68
2021/09/24 00:52:57;;;;;;;4.47;4.17;;;;;;;12.00;100.00;98102.03;5057437;28;20428;-69
2021/09/24 00:55:26;;;;;;;4.37;4.07;;;;;;;11.96;100.00;98106.81;5034379;28;20217;-68
2021/09/24 00:57:54;;;;;;;4.57;4.17;;;;;;;11.90;100.00;98109.31;5067654;28;20213;-67
2021/09/24 01:00:23;;;;;;;3.90;3.53;;;;;;;11.79;100.00;98103.38;5075228;28;20222;-68
2021/09/24 01:02:51;;;;;;;4.53;4.13;;;;;;;11.77;100.00;98104.56;5064164;28;20267;-66
2021/09/24 01:05:20;;;;;;;5.13;4.67;;;;;;;11.76;100.00;98108.22;5071089;28;20249;-65
2021/09/24 01:07:48;;;;;;;5.27;3.93;;;;;;;11.64;100.00;98111.19;5070596;28;20209;-67
2021/09/24 01:10:17;;;;;;;4.73;4.37;;;;;;;11.56;100.00;98105.91;5039408;22;20232;-73
2021/09/24 01:12:45;;;;;;;5.17;4.77;;;;;;;11.45;100.00;98104.41;5004775;28;20676;-68
2021/09/24 01:15:14;;;;;;;6.03;4.30;;;;;;;11.37;100.00;98104.44;5008878;28;20577;-71
2021/09/24 01:17:45;;;;;;;4.40;4.07;;;;;;;11.32;100.00;98109.41;5004598;28;20216;-71
2021/09/24 01:20:14;;;;;;;4.20;3.97;;;;;;;11.29;100.00;98107.91;5003857;28;20240;-70
2021/09/24 01:22:44;;;;;;;4.73;4.10;;;;;;;11.25;100.00;98114.53;5013503;28;20315;-70
2021/09/24 01:25:14;;;;;;;4.27;3.97;;;;;;;11.20;100.00;98106.25;5009709;28;20214;-72
2021/09/24 01:27:42;;;;;;;4.17;3.87;;;;;;;11.15;100.00;98112.88;4994387;28;20330;-71
2021/09/24 01:30:11;;;;;;;6.17;4.27;;;;;;;11.13;100.00;98112.22;5011146;28;20227;-71
2021/09/24 01:32:39;;;;;;;4.80;4.33;;;;;;;11.21;100.00;98110.56;5001671;28;20418;-72
2021/09/24 01:35:08;;;;;;;5.37;4.87;;;;;;;11.13;100.00;98106.06;5004459;28;20211;-71
2021/09/24 01:37:37;;;;;;;4.33;4.03;;;;;;;11.03;100.00;98108.06;5012442;28;20727;-68
2021/09/24 01:40:10;;;;;;;5.17;4.63;;;;;;;11.03;100.00;98095.66;5012650;28;20581;-70
2021/09/24 01:42:38;;;;;;;4.43;4.13;;;;;;;10.98;100.00;98101.44;4977998;28;20470;-71
2021/09/24 01:45:07;;;;;;;5.20;4.70;;;;;;;10.96;100.00;98098.13;5014574;28;20208;-71
2021/09/24 01:47:35;;;;;;;5.00;4.50;;;;;;;10.93;100.00;98102.91;5002629;28;21542;-72
2021/09/24 01:50:05;;;;;;;5.13;4.60;;;;;;;10.90;100.00;98089.97;5015760;28;20224;-70
2021/09/24 01:52:33;;;;;;;5.10;4.60;;;;;;;10.81;100.00;98099.75;5001200;28;20208;-72
2021/09/24 01:55:01;;;;;;;5.87;4.97;;;;;;;10.82;100.00;98094.28;5014394;28;20465;-71
2021/09/24 01:57:30;;;;;;;5.03;4.63;;;;;;;10.80;100.00;98088.31;4979123;28;20224;-68
2021/09/24 01:59:58;;;;;;;4.90;4.50;;;;;;;10.69;100.00;98091.28;5014576;28;20232;-70
2021/09/24 02:02:26;;;;;;;5.73;4.60;;;;;;;10.64;100.00;98088.28;5011840;28;20873;-71
2021/09/24 02:04:55;;;;;;;5.10;4.23;;;;;;;10.57;100.00;98090.75;5003312;28;20223;-70
2021/09/24 02:07:23;;;;;;;5.33;4.73;;;;;;;10.51;100.00;98083.44;5000721;28;20750;-70
2021/09/24 02:09:51;;;;;;;5.63;5.13;;;;;;;10.49;100.00;98088.91;5015416;28;20534;-70
2021/09/24 02:12:19;;;;;;;5.00;4.50;;;;;;;10.47;100.00;98087.41;4988001;28;20585;-71
2021/09/24 02:14:49;;;;;;;4.93;4.53;;;;;;;10.42;100.00;98086.09;5012013;28;20216;-69
2021/09/24 02:17:17;;;;;;;4.90;4.40;;;;;;;10.38;100.00;98083.88;4976178;28;20814;-70
2021/09/24 02:19:46;;;;;;;4.27;4.00;;;;;;;10.34;100.00;98086.00;4996653;28;20228;-68
2021/09/24 02:22:14;;;;;;;4.63;4.33;;;;;;;10.32;100.00;98087.97;5014889;28;20216;-72
2021/09/24 02:24:42;;;;;;;4.80;4.50;;;;;;;10.42;100.00;98085.22;4995032;28;20216;-71
2021/09/24 02:27:10;;;;;;;4.70;4.33;;;;;;;10.42;100.00;98087.88;5014435;28;20204;-70
2021/09/24 02:29:38;;;;;;;4.77;4.37;;;;;;;10.50;100.00;98087.09;5010356;28;20547;-69
2021/09/24 02:32:08;;;;;;;5.23;4.73;;;;;;;10.50;100.00;98081.78;4983155;28;20227;-72
2021/09/24 02:34:36;;;;;;;4.60;4.23;;;;;;;10.53;100.00;98087.56;5010440;28;20469;-70
2021/09/24 02:37:04;;;;;;;5.27;4.87;;;;;;;10.60;100.00;98085.13;5013288;28;20208;-68
2021/09/24 02:39:33;;;;;;;5.23;4.83;;;;;;;10.65;100.00;98093.41;4988868;28;20235;-70
2021/09/24 02:42:00;;;;;;;5.77;5.00;;;;;;;10.69;100.00;98089.44;5015252;28;20205;-69
2021/09/24 02:44:28;;;;;;;5.50;5.10;;;;;;;10.76;100.00;98091.44;4996107;28;20338;-69
2021/09/24 02:46:56;;;;;;;5.00;4.60;;;;;;;10.85;100.00;98087.84;5013702;28;20376;-71
2021/09/24 02:49:26;;;;;;;5.70;5.20;;;;;;;10.96;100.00;98092.81;4978253;28;20613;-71
2021/09/24 02:51:54;;;;;;;5.67;5.17;;;;;;;11.06;100.00;98089.16;5016550;28;20215;-70
2021/09/24 02:54:22;;;;;;;6.30;5.63;;;;;;;11.21;100.00;98090.19;5001959;28;20295;-70
2021/09/24 02:56:50;;;;;;;7.27;4.97;;;;;;;11.23;100.00;98090.84;5004606;28;20204;-70
2021/09/24 02:59:18;;;;;;;5.47;4.93;;;;;;;11.23;100.00;98098.81;5013028;28;20228;-70
2021/09/24 03:01:46;;;;;;;6.37;4.97;;;;;;;11.32;100.00;98094.31;5014801;28;20208;-72
2021/09/24 03:04:14;;;;;;;5.50;5.00;;;;;;;11.24;100.00;98104.91;4978537;28;20243;-69
2021/09/24 03:06:43;;;;;;;5.77;5.27;;;;;;;11.21;100.00;98098.13;5012120;28;20209;-70
2021/09/24 03:09:11;;;;;;;5.53;5.13;;;;;;;11.25;100.00;98099.47;5013180;28;20251;-70
2021/09/24 03:11:39;;;;;;;5.70;4.73;;;;;;;11.22;100.00;98105.09;4998214;28;20783;-70
2021/09/24 03:14:07;;;;;;;5.17;4.67;;;;;;;11.27;100.00;98108.09;5010793;28;20211;-69
2021/09/24 03:16:36;;;;;;;7.13;5.30;;;;;;;11.26;100.00;98110.88;5014874;28;20196;-70
2021/09/24 03:19:05;;;;;;;5.00;4.60;;;;;;;11.26;100.00;98103.78;4986220;28;20255;-71
2021/09/24 03:21:34;;;;;;;5.67;5.17;;;;;;;11.22;100.00;98106.91;5014144;28;20443;-70
2021/09/24 03:24:04;;;;;;;5.00;4.70;;;;;;;11.28;100.00;98103.59;5015182;28;20731;-70
2021/09/24 03:26:32;;;;;;;6.47;5.83;;;;;;;11.25;100.00;98110.06;5000684;28;20721;-70
2021/09/24 03:29:00;;;;;;;6.77;5.20;;;;;;;11.18;100.00;98110.88;5014638;28;21361;-70
2021/09/24 03:31:28;;;;;;;5.93;5.40;;;;;;;11.17;100.00;98109.22;5011287;28;20210;-68
2021/09/24 03:33:56;;;;;;;5.97;5.43;;;;;;;11.19;100.00;98116.03;4982683;28;20299;-72
2021/09/24 03:36:24;;;;;;;5.57;5.07;;;;;;;11.20;100.00;98119.50;5011347;28;20765;-70
2021/09/24 03:38:52;;;;;;;6.03;5.53;;;;;;;11.19;100.00;98115.19;5014550;28;20212;-71
2021/09/24 03:41:22;;;;;;;5.60;5.10;;;;;;;11.17;100.00;98120.66;5012063;28;20212;-70
2021/09/24 03:43:50;;;;;;;5.80;5.30;;;;;;;11.21;100.00;98122.00;5001225;28;20220;-69
2021/09/24 03:46:18;;;;;;;8.97;5.13;;;;;;;11.20;100.00;98124.81;5014665;28;20584;-70
2021/09/24 03:48:46;;;;;;;5.93;5.47;;;;;;;11.15;100.00;98120.00;4985410;28;20318;-68
2021/09/24 03:51:14;;;;;;;6.80;5.67;;;;;;;11.19;100.00;98121.34;5020152;28;20588;-71
2021/09/24 03:53:42;;;;;;;6.10;5.60;;;;;;;11.21;100.00;98119.38;5016926;28;20211;-71
2021/09/24 03:56:10;;;;;;;6.87;6.23;;;;;;;11.13;100.00;98125.47;5015542;28;20208;-71
2021/09/24 03:58:39;;;;;;;5.80;5.30;;;;;;;11.09;100.00;98120.66;5000796;28;20247;-69
2021/09/24 04:01:07;;;;;;;5.97;5.47;;;;;;;11.26;100.00;98130.31;5017479;28;20208;-70
2021/09/24 04:03:36;;;;;;;5.93;5.40;;;;;;;11.13;100.00;98130.78;5013038;28;20236;-70
2021/09/24 04:06:04;;;;;;;5.93;5.37;;;;;;;11.09;100.00;98133.91;4985336;28;20223;-69
2021/09/24 04:08:32;;;;;;;6.23;5.73;;;;;;;11.12;100.00;98138.88;5012250;28;20212;-71
2021/09/24 04:11:00;;;;;;;7.00;6.07;;;;;;;11.11;100.00;98134.59;5022150;28;20236;-71
2021/09/24 04:13:28;;;;;;;9.77;6.67;;;;;;;11.08;100.00;98137.56;5006453;28;20193;-70
2021/09/24 04:15:58;;;;;;;7.10;5.87;;;;;;;11.09;100.00;98136.56;5018095;28;20204;-69
2021/09/24 04:18:25;;;;;;;8.90;6.27;;;;;;;10.99;100.00;98132.25;5015588;28;20197;-71
2021/09/24 04:20:53;;;;;;;9.13;5.57;;;;;;;10.95;100.00;98132.72;4974604;28;20228;-71
2021/09/24 04:23:22;;;;;;;6.80;5.57;;;;;;;10.98;100.00;98143.00;5009284;28;20201;-72
2021/09/24 04:25:50;;;;;;;6.30;5.73;;;;;;;10.99;100.00;98145.50;4991299;28;20816;-71
2021/09/24 04:28:18;;;;;;;6.60;6.00;;;;;;;10.97;100.00;98144.84;5016603;28;20911;-72
2021/09/24 04:30:46;;;;;;;6.97;6.27;;;;;;;11.03;100.00;98147.84;5003517;28;20769;-72
2021/09/24 04:33:16;;;;;;;7.80;6.10;;;;;;;11.07;100.00;98152.66;5015335;28;20497;-71
2021/09/24 04:35:44;;;;;;;7.07;6.40;;;;;;;11.08;100.00;98150.81;5002016;28;20200;-71
2021/09/24 04:38:12;;;;;;;6.87;5.67;;;;;;;11.08;100.00;98151.66;5019412;28;20216;-69
2021/09/24 04:40:40;;;;;;;6.70;6.10;;;;;;;11.12;100.00;98146.84;4981721;28;20231;-71
2021/09/24 04:43:08;;;;;;;7.03;5.47;;;;;;;11.15;100.00;98151.81;5017291;28;20204;-70
2021/09/24 04:45:36;;;;;;;6.20;5.70;;;;;;;11.32;100.00;98154.50;5014639;28;20573;-70
2021/09/24 04:48:05;;;;;;;6.27;5.73;;;;;;;11.30;100.00;98159.97;5018883;28;20708;-70
2021/09/24 04:50:35;;;;;;;6.63;6.07;;;;;;;11.34;100.00;98155.19;4999616;28;20255;-70
2021/09/24 04:53:03;;;;;;;6.17;5.57;;;;;;;11.27;100.00;98163.78;5007303;28;20216;-71
2021/09/24 04:55:32;;;;;;;7.00;6.30;;;;;;;11.27;100.00;98166.44;4972667;28;20213;-69
2021/09/24 04:57:59;;;;;;;6.10;5.60;;;;;;;11.27;100.00;98166.44;5013755;28;20270;-70
2021/09/24 05:00:27;;;;;;;6.23;5.63;;;;;;;11.27;100.00;98168.25;4996488;28;20244;-69
2021/09/24 05:02:56;;;;;;;7.10;5.53;;;;;;;11.24;100.00;98174.75;5012419;28;20224;-69
2021/09/24 05:05:24;;;;;;;5.33;4.93;;;;;;;11.21;100.00;98174.22;5005128;28;20650;-69
2021/09/24 05:07:54;;;;;;;5.90;5.40;;;;;;;11.19;100.00;98179.72;5005092;28;20213;-69
2021/09/24 05:10:22;;;;;;;6.77;6.07;;;;;;;11.16;100.00;98172.03;5002102;28;20341;-69
2021/09/24 05:12:50;;;;;;;7.80;5.57;;;;;;;11.10;100.00;98181.50;4982398;28;20220;-69
2021/09/24 05:15:18;;;;;;;6.43;5.83;;;;;;;11.17;100.00;98179.00;5012939;28;20434;-72
2021/09/24 05:17:46;;;;;;;6.17;5.67;;;;;;;11.15;100.00;98184.50;5017443;28;20204;-70
2021/09/24 05:20:14;;;;;;;6.13;5.63;;;;;;;11.21;100.00;98180.38;5003943;28;20855;-70
2021/09/24 05:22:42;;;;;;;6.50;5.90;;;;;;;11.06;100.00;98182.81;5018173;28;20206;-71
2021/09/24 05:25:12;;;;;;;6.67;5.97;;;;;;;11.04;100.00;98189.28;5003099;28;20548;-72
2021/09/24 05:27:40;;;;;;;6.60;6.00;;;;;;;11.05;100.00;98193.59;4985305;28;20227;-72
2021/09/24 05:30:09;;;;;;;7.50;6.07;;;;;;;11.04;100.00;98191.94;5010044;28;20224;-69
2021/09/24 05:32:37;;;;;;;7.50;6.30;;;;;;;11.14;100.00;98189.94;4996584;28;20211;-71
2021/09/24 05:35:07;;;;;;;6.93;6.43;;;;;;;11.18;100.00;98193.97;5016765;28;20208;-73
2021/09/24 05:37:37;;;;;;;6.90;6.03;;;;;;;11.19;100.00;98194.78;4987372;28;20925;-70
2021/09/24 05:40:21;;;;;;;7.60;6.40;;;;;;;11.20;100.00;98189.31;4941838;28;20257;-73
2021/09/24 05:42:50;;;;;;;7.27;6.60;;;;;;;11.29;100.00;98182.19;4917303;28;22416;-72
2021/09/24 05:45:18;;;;;;;7.53;6.67;;;;;;;11.42;100.00;98187.00;4953734;28;20670;-72
2021/09/24 05:47:46;;;;;;;6.77;6.00;;;;;;;11.50;100.00;98180.91;4950196;28;20325;-69
2021/09/24 05:50:15;;;;;;;6.77;6.17;;;;;;;11.53;100.00;98181.38;4951006;28;20746;-72
2021/09/24 05:52:46;;;;;;;6.30;5.80;;;;;;;11.58;100.00;98186.19;4939509;28;20325;-71
2021/09/24 05:55:16;;;;;;;7.30;6.70;;;;;;;11.69;100.00;98190.34;4944002;28;20583;-69
2021/09/24 05:57:46;;;;;;;7.30;6.53;;;;;;;11.75;100.00;98189.69;4917521;28;22294;-73
2021/09/24 06:00:16;;;;;;;5.67;5.17;;;;;;;11.91;100.00;98191.50;4949069;28;20703;-72
2021/09/24 06:02:44;;;;;;;8.00;6.17;;;;;;;11.93;100.00;98197.47;4950060;28;20383;-70
2021/09/24 06:05:13;;;;;;;6.67;5.83;;;;;;;12.10;100.00;98211.59;4951413;28;20321;-71
2021/09/24 06:07:43;;;;;;;8.37;6.03;;;;;;;12.13;100.00;98208.59;4938361;28;20440;-72
2021/09/24 06:10:12;;;;;;;7.13;6.43;;;;;;;12.22;100.00;98198.78;4942443;28;20245;-71
2021/09/24 06:12:40;;;;;;;6.47;5.97;;;;;;;12.16;100.00;98200.28;4948987;28;20455;-69
2021/09/24 06:15:11;;;;;;;7.00;5.87;;;;;;;12.14;100.00;98201.47;4919090;28;20269;-71
2021/09/24 06:17:40;;;;;;;6.87;6.27;;;;;;;12.41;100.00;98196.72;4975814;28;20227;-72
2021/09/24 06:20:09;;;;;;;8.03;5.60;;;;;;;12.32;100.00;98198.59;5014825;28;20258;-71
2021/09/24 06:22:37;;;;;;;6.23;5.73;;;;;;;12.31;100.00;98199.56;5001388;28;20573;-70
2021/09/24 06:25:06;;;;;;;7.00;6.03;;;;;;;12.31;100.00;98199.56;5002572;28;20596;-69
2021/09/24 06:27:36;;;;;;;6.43;5.77;;;;;;;12.41;100.00;98202.88;5012335;28;20217;-70
2021/09/24 06:30:06;;;;;;;6.97;6.37;;;;;;;12.37;100.00;98200.72;4989010;28;20731;-73
2021/09/24 06:32:36;;;;;;;6.87;6.27;;;;;;;12.44;100.00;98196.38;4974455;28;20311;-70
2021/09/24 06:35:06;;;;;;;6.20;5.60;;;;;;;12.54;100.00;98201.50;5011327;28;20209;-70
2021/09/24 06:37:34;;;;;;;7.00;5.70;;;;;;;12.59;100.00;98201.81;4993716;28;21509;-71
2021/09/24 06:40:02;;;;;;;6.23;5.73;;;;;;;12.58;100.00;98205.47;5016021;28;20227;-70
2021/09/24 06:42:30;;;;;;;6.70;6.10;;;;;;;12.63;100.00;98202.31;5003797;28;20583;-71
2021/09/24 06:44:58;;;;;;;7.57;6.80;;;;;;;12.78;100.00;98205.09;5004052;28;20278;-70
2021/09/24 06:47:27;;;;;;;6.80;6.20;;;;;;;12.84;100.00;98199.06;4982385;28;20211;-70
2021/09/24 06:49:57;;;;;;;6.60;6.00;;;;;;;12.97;100.00;98201.16;5012650;28;20228;-71
2021/09/24 06:52:25;;;;;;;6.80;6.20;;;;;;;12.93;100.00;98190.03;5012463;28;20220;-69
2021/09/24 06:54:54;;;;;;;7.10;6.40;;;;;;;13.01;100.00;98195.31;5012443;28;20205;-70
2021/09/24 06:57:22;;;;;;;7.83;7.10;;;;;;;13.02;100.00;98201.47;4998826;28;20576;-70
2021/09/24 06:59:50;;;;;;;7.40;6.80;;;;;;;13.01;100.00;98211.28;5004019;28;20220;-70
2021/09/24 07:02:18;;;;;;;8.00;6.90;;;;;;;13.02;100.00;98207.59;4979041;28;20227;-71
2021/09/24 07:04:46;;;;;;;7.03;6.40;;;;;;;13.01;100.00;98202.47;5016265;28;20208;-71
2021/09/24 07:07:16;;;;;;;7.27;6.77;;;;;;;13.23;100.00;98211.50;5008725;28;20558;-70
2021/09/24 07:09:44;;;;;;;8.07;7.10;;;;;;;13.36;100.00;98215.41;5011549;28;20240;-69
2021/09/24 07:12:12;;;;;;;9.97;6.97;;;;;;;13.21;100.00;98213.50;5010415;28;20546;-71
2021/09/24 07:14:40;;;;;;;7.03;6.30;;;;;;;13.11;100.00;98207.59;4994484;28;20208;-72
2021/09/24 07:17:09;;;;;;;7.73;6.93;;;;;;;13.11;100.00;98212.91;4990531;28;20696;-71
2021/09/24 07:19:38;;;;;;;7.23;6.03;;;;;;;13.22;100.00;98209.84;5007506;28;20881;-71
2021/09/24 07:22:06;;;;;;;7.80;7.00;;;;;;;13.21;100.00;98210.84;5013286;28;20204;-71
2021/09/24 07:24:36;;;;;;;9.30;7.03;;;;;;;13.26;100.00;98219.13;5018695;28;20322;-72
2021/09/24 07:27:05;;;;;;;7.10;6.20;;;;;;;13.33;100.00;98221.91;5018624;28;20239;-72
2021/09/24 07:29:33;;;;;;;5.97;5.47;;;;;;;13.35;100.00;98217.25;4992033;28;20618;-68
2021/09/24 07:32:01;;;;;;;6.60;6.00;;;;;;;13.36;100.00;98210.91;5020077;28;20240;-69
2021/09/24 07:34:29;;;;;;;7.97;7.00;;;;;;;13.44;100.00;98215.38;4985998;28;20746;-69
2021/09/24 07:36:57;;;;;;;6.17;5.67;;;;;;;13.52;100.00;98218.00;5017935;28;20208;-69
2021/09/24 07:39:25;;;;;;;7.13;6.40;;;;;;;13.43;100.00;98221.69;5016303;28;20389;-70
2021/09/24 07:41:54;;;;;;;9.27;6.73;;;;;;;13.53;100.00;98216.16;5016560;28;20204;-69
2021/09/24 07:44:22;;;;;;;7.27;6.67;;;;;;;13.63;100.00;98218.59;5005034;28;20455;-71
2021/09/24 07:46:51;;;;;;;7.23;6.53;;;;;;;13.64;100.00;98223.75;5009208;28;20225;-72
2021/09/24 07:49:19;;;;;;;7.17;6.40;;;;;;;13.73;100.00;98219.16;4982496;28;21064;-69
2021/09/24 07:51:51;;;;;;;8.93;6.90;;;;;;;13.91;100.00;98221.50;5023765;28;20215;-72
2021/09/24 07:54:21;;;;;;;8.63;7.93;;;;;;;13.82;100.00;98218.06;5016534;28;20657;-72
2021/09/24 07:56:49;;;;;;;7.87;7.17;;;;;;;13.91;100.00;98226.84;5022393;28;20633;-68
2021/09/24 07:59:19;;;;;;;6.77;6.17;;;;;;;13.96;100.00;98223.66;5017297;28;20224;-71
2021/09/24 08:01:47;;;;;;;6.80;6.23;;;;;;;14.00;100.00;98228.41;4996428;28;20378;-71
2021/09/24 08:04:16;;;;;;;6.83;6.13;;;;;;;14.02;100.00;98238.91;4982112;28;20212;-70
2021/09/24 08:06:49;;;;;;;7.00;6.40;;;;;;;14.15;100.00;98230.31;5016447;28;20259;-71
2021/09/24 08:09:17;;;;;;;6.70;6.03;;;;;;;14.15;100.00;98231.09;5011017;28;20450;-70
2021/09/24 08:11:45;;;;;;;7.57;6.93;;;;;;;14.17;100.00;98228.28;5016455;28;20227;-68
2021/09/24 08:14:14;;;;;;;7.47;6.23;;;;;;;14.29;100.00;98228.66;5013791;28;20219;-70
2021/09/24 08:16:43;;;;;;;7.93;6.50;;;;;;;14.53;100.00;98229.41;5006391;28;20696;-72
2021/09/24 08:19:11;;;;;;;7.10;6.57;;;;;;;14.61;100.00;98230.16;5012637;28;20237;-70
2021/09/24 08:21:39;;;;;;;7.10;6.40;;;;;;;14.59;100.00;98226.03;4983535;28;20302;-70
2021/09/24 08:24:07;;;;;;;9.37;6.83;;;;;;;14.70;100.00;98233.59;5011450;28;20209;-71
2021/09/24 08:26:35;;;;;;;6.17;5.73;;;;;;;14.98;100.00;98235.59;5015579;28;20224;-71
2021/09/24 08:29:04;;;;;;;7.03;6.40;;;;;;;15.04;100.00;98239.34;5016733;28;20235;-69
2021/09/24 08:31:33;;;;;;;6.67;6.07;;;;;;;14.94;100.00;98246.81;5016062;28;20220;-71
2021/09/24 08:34:02;;;;;;;6.77;6.10;;;;;;;14.84;100.00;98244.41;5001091;28;20216;-70
2021/09/24 08:36:33;;;;;;;6.80;6.00;;;;;;;15.14;100.00;98239.84;4985669;28;20866;-69
2021/09/24 08:39:01;;;;;;;7.33;6.40;;;;;;;15.10;100.00;98243.91;4979016;28;20224;-71
2021/09/24 08:41:30;;;;;;;8.00;6.53;;;;;;;15.27;100.00;98238.38;5013791;28;20766;-70
2021/09/24 08:43:59;;;;;;;7.80;6.50;;;;;;;15.22;100.00;98240.78;5016483;28;20204;-72
2021/09/24 08:46:27;;;;;;;6.80;6.13;;;;;;;15.39;100.00;98244.88;5016161;28;20230;-69
2021/09/24 08:48:57;;;;;;;5.93;5.43;;;;;;;15.51;100.00;98242.53;5017566;28;20212;-72
2021/09/24 08:51:26;;;;;;;6.27;5.77;;;;;;;15.57;100.00;98244.44;5016469;28;20208;-70
2021/09/24 08:53:54;;;;;;;6.20;5.70;;;;;;;15.65;100.00;98240.81;5019359;28;20696;-70
2021/09/24 08:56:22;;;;;;;7.17;6.47;;;;;;;15.89;100.00;98250.31;4982597;28;20700;-69
2021/09/24 08:58:50;;;;;;;6.63;6.07;;;;;;;15.95;100.00;98250.56;5019053;28;20834;-71
2021/09/24 09:01:18;;;;;;;6.03;5.50;;;;;;;15.74;100.00;98242.34;5017398;28;20208;-72
2021/09/24 09:03:48;;;;;;;7.03;5.20;;;;;;;15.70;100.00;98245.56;5017166;28;20561;-70
2021/09/24 09:06:17;;;;;;;9.13;6.87;;;;;;;16.07;100.00;98246.34;5016930;28;20227;-72
2021/09/24 09:08:47;;;;;;;5.90;5.30;;;;;;;15.89;100.00;98255.66;5013560;28;20266;-71
2021/09/24 09:11:18;;;;;;;6.03;5.53;;;;;;;16.05;100.00;98251.06;4984613;28;20228;-71
2021/09/24 09:13:48;;;;;;;6.53;4.97;;;;;;;16.16;100.00;98247.88;5013691;28;20349;-73
2021/09/24 09:16:18;;;;;;;5.80;5.30;;;;;;;16.30;100.00;98253.31;5016033;28;20200;-72
2021/09/24 09:18:48;;;;;;;6.10;5.60;;;;;;;16.51;100.00;98252.44;5014818;28;20240;-72
2021/09/24 09:21:20;;;;;;;6.40;5.07;;;;;;;16.58;100.00;98252.47;5018947;28;20290;-72
2021/09/24 09:23:53;;;;;;;7.73;5.30;;;;;;;16.68;100.00;98250.28;5017520;28;20209;-71
2021/09/24 09:26:23;;;;;;;5.00;4.50;;;;;;;16.68;100.00;98255.63;4982417;28;20716;-71
2021/09/24 09:28:54;;;;;;;5.17;4.70;;;;;;;16.80;100.00;98253.22;5012767;28;20410;-72
2021/09/24 09:31:26;;;;;;;6.03;5.63;;;;;;;17.03;100.00;98249.44;5015407;28;20295;-70
2021/09/24 09:33:56;;;;;;;5.43;4.93;;;;;;;17.05;100.00;98247.41;5016042;28;20397;-70
2021/09/24 09:36:26;;;;;;;6.03;5.53;;;;;;;17.25;100.00;98244.78;5016243;28;20204;-70
2021/09/24 09:38:56;;;;;;;6.97;5.70;;;;;;;17.15;100.00;98247.00;5014860;28;20507;-70
2021/09/24 09:41:25;;;;;;;5.77;5.20;;;;;;;17.03;100.00;98244.91;4977322;28;20227;-70
2021/09/24 09:43:56;;;;;;;5.40;5.00;;;;;;;17.12;100.00;98242.06;5012316;28;20864;-71
2021/09/24 09:46:25;;;;;;;6.33;5.40;;;;;;;17.49;100.00;98240.75;5013556;28;20669;-70
2021/09/24 09:49:06;;;;;;;5.30;4.80;;;;;;;17.34;100.00;98248.94;5013997;28;20212;-72
2021/09/24 09:51:36;;;;;;;7.20;4.63;;;;;;;17.42;100.00;98245.22;5014118;28;20211;-70
2021/09/24 09:54:06;;;;;;;5.00;4.50;;;;;;;17.33;100.00;98244.63;5017600;28;20699;-69
2021/09/24 09:56:39;;;;;;;7.67;4.80;;;;;;;17.81;100.00;98250.06;4986539;28;20204;-71
2021/09/24 09:59:28;;;;;;;4.80;4.50;;;;;;;17.80;100.00;98241.19;5014919;28;20254;-72
2021/09/24 10:02:10;;;;;;;5.23;4.73;;;;;;;17.70;100.00;98240.78;5015293;28;20208;-71
2021/09/24 10:04:39;;;;;;;5.13;4.80;;;;;;;17.59;100.00;98242.19;5012169;28;20235;-73
2021/09/24 10:07:17;;;;;;;4.60;4.20;;;;;;;17.58;100.00;98241.34;5016232;28;20236;-71
2021/09/24 10:09:49;;;;;;;4.80;4.40;;;;;;;17.94;100.00;98234.78;5015004;28;20405;-72
2021/09/24 10:12:20;;;;;;;4.73;4.33;;;;;;;18.09;100.00;98231.13;4981913;28;20581;-74
2021/09/24 10:14:49;;;;;;;4.27;3.87;;;;;;;17.97;100.00;98240.78;5012089;28;20349;-71
2021/09/24 10:17:18;;;;;;;4.87;4.30;;;;;;;17.98;100.00;98245.09;5015842;28;20209;-72
2021/09/24 10:19:47;;;;;;;4.03;3.83;;;;;;;17.93;100.00;98246.56;5014858;28;20450;-73
2021/09/24 10:22:15;;;;;;;4.27;3.97;;;;;;;18.10;100.00;98240.00;5015315;28;20208;-70
2021/09/24 10:24:43;;;;;;;4.00;3.60;;;;;;;18.11;100.00;98239.78;5010657;28;20321;-72
2021/09/24 10:27:18;;;;;;;6.03;3.90;;;;;;;18.06;100.00;98245.75;4979417;28;20239;-72
2021/09/24 10:29:48;;;;;;;3.63;3.43;;;;;;;17.92;100.00;98239.53;5012079;28;20216;-72
2021/09/24 10:32:19;;;;;;;4.07;3.70;;;;;;;18.21;100.00;98242.88;5015529;28;20207;-70
2021/09/24 10:34:56;;;;;;;4.33;4.03;;;;;;;18.13;100.00;98242.25;5012898;28;20227;-70
2021/09/24 10:37:24;;;;;;;5.93;4.10;;;;;;;18.19;100.00;98236.91;5015629;28;20208;-71
2021/09/24 10:39:58;;;;;;;3.90;3.47;;;;;;;18.27;100.00;98235.88;5015134;28;20316;-72
2021/09/24 10:42:43;;;;;;;4.27;3.97;;;;;;;18.45;100.00;98234.38;4997149;28;20214;-71
2021/09/24 10:45:14;;;;;;;5.23;4.53;;;;;;;18.44;100.00;98235.41;5012287;28;20578;-71
2021/09/24 10:47:55;;;;;;;4.43;3.97;;;;;;;18.49;100.00;98222.19;4980083;28;21365;-72
2021/09/24 10:50:57;;;;;;;4.70;4.30;;;;;;;18.56;100.00;98220.34;5003141;28;20224;-69
2021/09/24 10:53:39;;;;;;;3.87;3.67;;;;;;;18.64;100.00;98224.63;4933563;28;20251;-73
2021/09/24 10:56:37;;;;;;;4.30;4.00;;;;;;;18.54;100.00;98218.91;4926984;28;20240;-72
2021/09/24 10:59:29;;;;;;;3.90;3.57;;;;;;;18.55;100.00;98213.31;5002502;28;20227;-71
2021/09/24 11:01:58;;;;;;;3.40;3.17;;;;;;;18.99;100.00;98216.28;5019310;28;20218;-70
2021/09/24 11:04:43;;;;;;;3.50;3.30;;;;;;;19.02;100.00;98207.81;4984075;28;20572;-73
2021/09/24 11:07:12;;;;;;;4.33;3.07;;;;;;;19.01;100.00;98191.91;5018298;28;20232;-71
2021/09/24 11:09:52;;;;;;;3.27;3.10;;;;;;;18.98;100.00;98205.78;5007390;28;20476;-72
2021/09/24 11:12:20;;;;;;;5.60;3.97;;;;;;;19.22;100.00;98204.22;5018448;28;20216;-71
2021/09/24 11:15:05;;;;;;;4.07;3.70;;;;;;;19.33;100.00;98211.59;5022143;28;20208;-72
2021/09/24 11:17:43;;;;;;;3.80;3.53;;;;;;;19.31;100.00;98202.06;5019070;28;20294;-71
2021/09/24 11:20:33;;;;;;;4.90;3.83;;;;;;;19.20;100.00;98193.66;4983948;28;20239;-70
2021/09/24 11:23:33;;;;;;;4.80;4.40;;;;;;;19.39;100.00;98193.78;5011859;28;20250;-70
2021/09/24 11:26:16;;;;;;;3.80;3.50;;;;;;;19.69;100.00;98203.09;5010227;28;20220;-71
2021/09/24 11:28:45;;;;;;;4.33;3.83;;;;;;;19.79;100.00;98196.19;5019793;28;20224;-69
2021/09/24 11:31:16;;;;;;;5.47;3.33;;;;;;;19.87;100.00;98192.38;5017543;28;20220;-71
2021/09/24 11:33:47;;;;;;;4.53;4.17;;;;;;;20.01;100.00;98195.81;5022099;28;20463;-72
2021/09/24 11:36:16;;;;;;;4.07;3.73;;;;;;;20.01;100.00;98197.69;4988910;28;20224;-71